createdAt,value
2018-12-02T00:02:20.032Z,84.38
2018-12-02T00:04:53.354Z,84.56
2018-12-02T00:07:42.214Z,84.56
2018-12-02T00:10:21.682Z,84.75
2018-12-02T00:12:54.250Z,84.70
2018-12-02T00:15:30.930Z,84.86
2018-12-02T00:18:03.999Z,84.86
2018-12-02T00:20:36.760Z,84.97
2018-12-02T00:23:10.379Z,85.02
2018-12-02T00:25:43.697Z,85.11
2018-12-02T00:28:16.107Z,85.24
2018-12-02T00:30:48.639Z,85.53
2018-12-02T00:33:21.037Z,85.63
2018-12-02T00:35:53.538Z,85.77
2018-12-02T00:38:26.029Z,85.84
2018-12-02T00:40:58.533Z,86.14
2018-12-02T00:43:30.960Z,86.43
2018-12-02T00:46:03.425Z,86.58
2018-12-02T00:48:35.934Z,86.99
2018-12-02T00:51:08.595Z,86.93
2018-12-02T00:53:41.015Z,87.02
2018-12-02T00:56:10.212Z,86.99
2018-12-02T00:58:42.732Z,87.19
2018-12-02T01:01:15.180Z,87.18
2018-12-02T01:03:47.602Z,87.27
2018-12-02T01:06:20.035Z,87.50
2018-12-02T01:08:52.460Z,87.40
2018-12-02T01:11:24.948Z,87.51
2018-12-02T01:13:57.525Z,87.46
2018-12-02T01:16:30.072Z,87.50
2018-12-02T01:19:02.541Z,87.47
2018-12-02T01:21:37.262Z,87.41
2018-12-02T01:24:09.665Z,87.47
2018-12-02T01:26:42.076Z,87.34
2018-12-02T01:29:14.705Z,87.29
2018-12-02T01:31:47.222Z,87.41
2018-12-02T01:34:19.732Z,87.29
2018-12-02T01:36:52.231Z,87.16
2018-12-02T01:39:24.652Z,87.30
2018-12-02T01:41:57.319Z,87.32
2018-12-02T01:44:29.786Z,87.44
2018-12-02T01:47:02.190Z,87.53
2018-12-02T01:49:34.663Z,87.53
2018-12-02T01:52:07.790Z,87.64
2018-12-02T01:54:40.222Z,87.70
2018-12-02T01:57:12.793Z,87.71
2018-12-02T01:59:45.193Z,87.75
2018-12-02T02:02:17.670Z,87.89
2018-12-02T02:04:50.197Z,88.17
2018-12-02T02:07:22.612Z,88.17
2018-12-02T02:09:55.025Z,88.10
2018-12-02T02:12:27.511Z,88.01
2018-12-02T02:14:59.963Z,88.07
2018-12-02T02:17:32.488Z,88.09
2018-12-02T02:20:05.357Z,88.16
2018-12-02T02:22:37.992Z,88.19
2018-12-02T02:25:17.395Z,88.25
2018-12-02T02:27:54.885Z,88.21
2018-12-02T02:30:31.785Z,88.15
2018-12-02T02:33:04.209Z,88.16
2018-12-02T02:35:36.588Z,88.14
2018-12-02T02:38:09.552Z,88.14
2018-12-02T02:40:42.010Z,88.13
2018-12-02T02:43:14.423Z,88.04
2018-12-02T02:45:46.861Z,87.92
2018-12-02T02:48:19.256Z,87.59
2018-12-02T02:50:51.709Z,87.82
2018-12-02T02:53:24.135Z,87.66
2018-12-02T02:55:56.682Z,87.94
2018-12-02T02:58:29.059Z,87.96
2018-12-02T03:01:02.383Z,88.06
2018-12-02T03:03:35.720Z,87.88
2018-12-02T03:06:08.371Z,87.69
2018-12-02T03:08:40.749Z,87.63
2018-12-02T03:11:13.155Z,87.42
2018-12-02T03:13:46.085Z,87.32
2018-12-02T03:16:18.784Z,87.06
2018-12-02T03:18:51.153Z,86.93
2018-12-02T03:21:23.658Z,87.14
2018-12-02T03:23:56.181Z,87.18
2018-12-02T03:26:28.666Z,87.21
2018-12-02T03:29:01.093Z,86.96
2018-12-02T03:31:34.447Z,86.76
2018-12-02T03:34:06.928Z,87.11
2018-12-02T03:36:39.372Z,87.14
2018-12-02T03:39:11.856Z,87.06
2018-12-02T03:41:44.846Z,87.14
2018-12-02T03:44:17.669Z,86.92
2018-12-02T03:46:50.166Z,86.70
2018-12-02T03:49:22.601Z,86.71
2018-12-02T03:51:55.161Z,86.79
2018-12-02T03:54:27.535Z,86.25
2018-12-02T03:57:00.110Z,86.43
2018-12-02T03:59:32.499Z,86.27
2018-12-02T04:02:05.022Z,86.04
2018-12-02T04:04:37.483Z,85.41
2018-12-02T04:07:09.879Z,85.22
2018-12-02T04:09:42.235Z,85.06
2018-12-02T04:12:14.676Z,84.82
2018-12-02T04:14:47.067Z,84.47
2018-12-02T04:17:19.686Z,84.57
2018-12-02T04:19:53.005Z,84.71
2018-12-02T04:22:25.450Z,84.71
2018-12-02T04:24:57.836Z,84.07
2018-12-02T04:27:30.264Z,84.24
2018-12-02T04:30:02.678Z,83.88
2018-12-02T04:32:35.186Z,83.98
2018-12-02T04:35:09.511Z,83.40
2018-12-02T04:37:41.972Z,83.19
2018-12-02T04:40:15.652Z,83.47
2018-12-02T04:42:48.021Z,83.49
2018-12-02T04:45:23.337Z,83.66
2018-12-02T04:47:55.803Z,83.79
2018-12-02T04:50:28.411Z,83.47
2018-12-02T04:53:00.913Z,83.53
2018-12-02T04:55:33.303Z,83.94
2018-12-02T04:58:05.815Z,83.73
2018-12-02T05:00:38.192Z,83.58
2018-12-02T05:03:10.610Z,83.19
2018-12-02T05:05:43.019Z,83.51
2018-12-02T05:08:15.394Z,82.87
2018-12-02T05:10:47.798Z,83.26
2018-12-02T05:13:20.287Z,83.22
2018-12-02T05:15:52.666Z,83.89
2018-12-02T05:18:25.140Z,83.80
2018-12-02T05:20:57.637Z,83.93
2018-12-02T05:23:30.080Z,83.96
2018-12-02T05:26:02.559Z,84.09
2018-12-02T05:28:34.966Z,84.10
2018-12-02T05:31:07.653Z,83.89
2018-12-02T05:33:40.075Z,83.61
2018-12-02T05:36:12.560Z,83.92
2018-12-02T05:38:44.968Z,84.00
2018-12-02T05:41:17.435Z,83.61
2018-12-02T05:43:49.926Z,83.21
2018-12-02T05:46:24.395Z,82.98
2018-12-02T05:48:55.663Z,82.78
2018-12-02T05:51:28.116Z,82.93
2018-12-02T05:54:00.565Z,83.10
2018-12-02T05:56:32.970Z,82.61
2018-12-02T05:59:05.359Z,82.19
2018-12-02T06:01:37.745Z,82.71
2018-12-02T06:04:11.905Z,82.70
2018-12-02T06:06:44.459Z,82.89
2018-12-02T06:09:17.792Z,82.22
2018-12-02T06:11:50.343Z,82.16
2018-12-02T06:14:22.895Z,82.14
2018-12-02T06:16:55.295Z,81.76
2018-12-02T06:19:28.011Z,81.84
2018-12-02T06:22:00.432Z,82.18
2018-12-02T06:24:33.128Z,82.12
2018-12-02T06:27:05.538Z,81.70
2018-12-02T06:29:38.374Z,81.37
2018-12-02T06:32:12.292Z,81.53
2018-12-02T06:34:44.817Z,80.82
2018-12-02T06:37:17.190Z,80.75
2018-12-02T06:39:49.690Z,80.88
2018-12-02T11:32:07.058Z,63.53
2018-12-02T11:34:45.959Z,64.47
2018-12-02T11:37:23.411Z,65.08
2018-12-02T11:40:45.960Z,64.79
2018-12-02T11:42:33.780Z,64.57
2018-12-02T11:45:12.881Z,64.99
2018-12-02T11:48:16.611Z,63.99
2018-12-02T11:51:19.697Z,63.08
2018-12-02T11:53:53.135Z,63.45
2018-12-02T11:56:34.518Z,63.01
2018-12-02T11:59:17.256Z,63.64
2018-12-02T12:01:57.069Z,63.64
2018-12-02T12:04:29.573Z,63.82
2018-12-02T12:07:15.916Z,64.41
2018-12-02T12:10:03.448Z,65.00
2018-12-02T12:12:36.379Z,64.99
2018-12-02T12:15:20.637Z,64.86
2018-12-02T12:18:08.528Z,65.12
2018-12-02T12:20:48.339Z,65.24
2018-12-02T12:23:33.907Z,65.29
2018-12-02T12:26:15.958Z,65.17
2018-12-02T12:29:03.306Z,65.19
2018-12-02T12:31:35.954Z,65.24
2018-12-02T12:34:17.614Z,65.25
2018-12-02T12:36:57.510Z,65.32
2018-12-02T12:39:32.887Z,65.13
2018-12-02T12:42:08.676Z,64.99
2018-12-02T12:44:40.477Z,64.95
2018-12-02T12:47:13.367Z,65.13
2018-12-02T12:49:58.139Z,65.45
2018-12-02T12:52:45.221Z,65.25
2018-12-02T12:55:22.083Z,65.52
2018-12-02T12:57:59.348Z,65.11
2018-12-02T13:00:47.554Z,65.52
2018-12-02T13:03:20.301Z,65.84
2018-12-02T13:05:56.936Z,66.04
2018-12-02T13:08:29.551Z,65.88
2018-12-02T13:11:06.862Z,66.07
2018-12-02T13:13:55.361Z,66.16
2018-12-02T13:16:32.056Z,65.82
2018-12-02T13:19:02.584Z,65.70
2018-12-02T13:21:52.361Z,65.76
2018-12-02T13:24:25.760Z,65.76
2018-12-02T13:26:58.604Z,65.75
2018-12-02T13:29:31.115Z,65.78
2018-12-02T13:32:04.646Z,65.91
2018-12-02T13:34:37.237Z,65.98
2018-12-02T13:37:09.964Z,66.26
2018-12-02T13:39:42.522Z,66.34
2018-12-02T13:42:17.895Z,66.19
2018-12-02T13:44:49.808Z,66.11
2018-12-02T13:47:22.305Z,66.14
2018-12-02T13:50:01.407Z,66.17
2018-12-02T13:52:50.041Z,66.04
2018-12-02T13:55:35.066Z,66.13
2018-12-02T13:58:13.182Z,66.33
2018-12-02T14:00:46.196Z,66.34
2018-12-02T14:03:28.909Z,66.45
2018-12-02T14:06:07.673Z,66.42
2018-12-02T14:08:42.758Z,66.64
2018-12-02T14:11:22.141Z,66.71
2018-12-02T14:14:20.559Z,66.66
2018-12-02T14:17:25.057Z,66.65
2018-12-02T14:20:26.316Z,66.84
2018-12-02T14:23:11.685Z,66.82
2018-12-02T14:25:47.391Z,66.91
2018-12-02T14:28:28.259Z,67.10
2018-12-02T14:31:02.295Z,67.48
2018-12-02T14:33:40.249Z,67.98
2018-12-02T14:36:20.747Z,67.58
2018-12-02T14:38:56.832Z,67.31
2018-12-02T14:41:29.915Z,67.26
2018-12-02T14:44:02.869Z,67.46
2018-12-02T14:47:14.152Z,67.54
2018-12-02T14:50:17.542Z,67.47
2018-12-02T14:53:03.558Z,67.58
2018-12-02T14:55:36.282Z,67.86
2018-12-02T14:58:17.823Z,67.97
2018-12-02T15:01:15.322Z,67.95
2018-12-02T15:04:00.247Z,67.63
2018-12-02T15:06:33.963Z,67.60
2018-12-02T15:09:12.536Z,67.40
2018-12-02T15:11:45.837Z,67.27
2018-12-02T15:14:27.881Z,66.86
2018-12-02T15:17:03.642Z,67.18
2018-12-02T15:19:57.516Z,67.08
2018-12-02T15:22:36.896Z,66.99
2018-12-02T15:25:26.253Z,67.04
2018-12-02T15:28:01.067Z,67.04
2018-12-02T15:30:58.580Z,67.01
2018-12-02T15:33:59.787Z,66.96
2018-12-02T15:36:32.377Z,67.20
2018-12-02T15:39:36.081Z,67.42
2018-12-02T15:42:17.258Z,68.17
2018-12-02T15:44:50.003Z,68.58
2018-12-02T15:47:22.936Z,69.26
2018-12-02T15:49:55.649Z,70.34
2018-12-02T15:52:29.525Z,70.25
2018-12-02T15:55:02.871Z,70.92
2018-12-02T15:57:35.707Z,71.76
2018-12-02T16:00:33.468Z,72.64
2018-12-02T16:03:07.600Z,73.50
2018-12-02T16:05:41.279Z,74.33
2018-12-02T16:08:14.229Z,74.85
2018-12-02T16:10:46.964Z,75.37
2018-12-02T16:13:26.490Z,75.92
2018-12-02T16:16:00.395Z,76.87
2018-12-02T16:18:33.010Z,76.85
2018-12-02T16:21:08.538Z,77.98
2018-12-02T16:23:40.573Z,78.00
2018-12-02T16:26:13.296Z,78.17
2018-12-02T16:28:45.931Z,78.41
